Time;durP1;ratioP1;P1;durP2;ratioP2;P2;SDS_P1;SDS_P2;PMS_P1;PMS_P2;Temp;Humidity;BMP_temperature;BMP_pressure;BME280_temperature;BME280_humidity;BME280_pressure;Samples;Min_cycle;Max_cycle;Signal;HPM_P1;HPM_P2
2022/03/16 00:00:10;;;;;;;75.78;30.67;;;0.10;99.90;;;;;;5074509;28;20122;-70
2022/03/16 00:02:35;;;;;;;65.68;30.33;;;0.10;99.90;;;;;;5074285;28;20084;-70
2022/03/16 00:05:01;;;;;;;63.47;28.92;;;0.10;99.90;;;;;;5073694;28;20109;-70
2022/03/16 00:07:27;;;;;;;74.05;29.15;;;0.00;99.90;;;;;;5074437;28;20025;-70
2022/03/16 00:09:52;;;;;;;64.68;28.33;;;0.00;99.90;;;;;;5074788;28;20031;-70
2022/03/16 00:12:18;;;;;;;59.22;27.88;;;-0.10;99.90;;;;;;5074501;28;20020;-70
2022/03/16 00:14:44;;;;;;;53.67;27.88;;;-0.10;99.90;;;;;;5074215;28;20496;-70
2022/03/16 00:17:10;;;;;;;52.20;26.27;;;-0.10;99.90;;;;;;5074362;28;20033;-70
2022/03/16 00:19:36;;;;;;;39.90;21.60;;;-0.20;99.90;;;;;;5074576;28;20080;-70
2022/03/16 00:22:03;;;;;;;39.85;21.63;;;-0.20;99.90;;;;;;5074193;28;20468;-70
2022/03/16 00:24:29;;;;;;;37.78;21.95;;;-0.10;99.90;;;;;;5074263;28;20033;-70
2022/03/16 00:26:55;;;;;;;34.85;19.88;;;-0.10;99.90;;;;;;5072885;28;20143;-70
2022/03/16 00:29:21;;;;;;;32.75;17.50;;;-0.10;99.90;;;;;;5074122;28;20076;-70
2022/03/16 00:31:46;;;;;;;25.58;15.38;;;-0.10;99.90;;;;;;5074075;28;20021;-70
2022/03/16 00:34:12;;;;;;;27.42;17.58;;;-0.10;99.90;;;;;;5074114;28;20032;-70
2022/03/16 00:36:38;;;;;;;25.50;16.98;;;-0.10;99.90;;;;;;5074006;28;20572;-70
2022/03/16 00:39:04;;;;;;;26.80;16.73;;;-0.20;99.90;;;;;;5074070;28;20384;-70
2022/03/16 00:41:31;;;;;;;25.00;16.35;;;-0.20;99.90;;;;;;5074235;28;20087;-70
2022/03/16 00:43:57;;;;;;;27.25;16.75;;;-0.20;99.90;;;;;;5073954;28;20032;-70
2022/03/16 00:46:22;;;;;;;22.95;15.57;;;-0.20;99.90;;;;;;5073957;28;20380;-70
2022/03/16 00:48:48;;;;;;;24.45;15.02;;;-0.20;99.90;;;;;;5074488;28;20028;-70
2022/03/16 00:51:14;;;;;;;27.63;16.15;;;-0.20;99.90;;;;;;5073862;28;20028;-70
2022/03/16 00:53:40;;;;;;;27.10;16.45;;;-0.20;99.90;;;;;;5073875;28;20025;-70
2022/03/16 00:56:07;;;;;;;29.90;18.60;;;-0.10;99.90;;;;;;5074477;28;20032;-70
2022/03/16 00:58:33;;;;;;;29.83;18.95;;;-0.10;99.90;;;;;;5074132;28;20040;-70
2022/03/16 01:00:59;;;;;;;29.20;18.73;;;-0.10;99.90;;;;;;5073774;28;20024;-70
2022/03/16 01:03:25;;;;;;;27.10;17.83;;;-0.10;99.90;;;;;;5073726;28;20039;-70
2022/03/16 01:05:51;;;;;;;27.55;17.65;;;-0.10;99.90;;;;;;5073711;28;20017;-70
2022/03/16 01:08:17;;;;;;;29.65;17.83;;;-0.10;99.90;;;;;;5073761;28;20020;-70
2022/03/16 01:10:42;;;;;;;26.75;17.40;;;-0.10;99.90;;;;;;5073933;28;20016;-70
2022/03/16 01:13:08;;;;;;;28.27;17.17;;;-0.10;99.90;;;;;;5073901;28;20041;-70
2022/03/16 01:15:34;;;;;;;25.63;17.45;;;-0.10;99.90;;;;;;5075754;28;20024;-70
2022/03/16 01:17:59;;;;;;;28.17;17.27;;;-0.10;99.90;;;;;;5077615;28;20028;-70
2022/03/16 01:20:25;;;;;;;34.85;20.50;;;-0.20;99.90;;;;;;5077579;28;20024;-70
2022/03/16 01:22:50;;;;;;;33.97;21.13;;;-0.30;99.90;;;;;;5077489;28;20056;-70
2022/03/16 01:25:16;;;;;;;34.28;21.13;;;-0.40;99.90;;;;;;5076013;28;20029;-70
2022/03/16 01:27:42;;;;;;;31.73;19.27;;;-0.40;99.90;;;;;;5077499;28;20025;-70
2022/03/16 01:30:08;;;;;;;31.67;20.23;;;-0.40;99.90;;;;;;5076363;28;20028;-70
2022/03/16 01:32:33;;;;;;;33.92;20.08;;;-0.40;99.90;;;;;;5077517;28;20035;-70
2022/03/16 01:34:59;;;;;;;30.05;19.15;;;-0.40;99.90;;;;;;5077164;28;20112;-70
2022/03/16 01:37:24;;;;;;;37.20;19.88;;;-0.40;99.90;;;;;;5077201;28;20028;-70
2022/03/16 01:39:50;;;;;;;34.05;20.25;;;-0.40;99.90;;;;;;5077201;28;20039;-70
2022/03/16 01:42:16;;;;;;;37.65;20.00;;;-0.40;99.90;;;;;;5077245;28;20064;-70
2022/03/16 01:44:43;;;;;;;37.90;20.85;;;-0.40;99.90;;;;;;5077081;28;20491;-70
2022/03/16 01:47:08;;;;;;;37.33;21.95;;;-0.40;99.90;;;;;;5075783;28;20025;-70
2022/03/16 01:49:34;;;;;;;49.72;23.08;;;-0.40;99.90;;;;;;5077360;28;20424;-70
2022/03/16 01:51:59;;;;;;;43.70;24.35;;;-0.40;99.90;;;;;;5077003;28;20021;-70
2022/03/16 01:54:25;;;;;;;36.08;20.98;;;-0.40;99.90;;;;;;5077185;28;20025;-70
2022/03/16 01:56:52;;;;;;;36.70;21.67;;;-0.40;99.90;;;;;;5076794;28;20058;-70
2022/03/16 01:59:17;;;;;;;37.60;22.17;;;-0.40;99.90;;;;;;5077144;28;20032;-70
2022/03/16 02:01:43;;;;;;;42.63;20.85;;;-0.40;99.90;;;;;;5076020;28;20098;-70
2022/03/16 02:04:08;;;;;;;30.90;19.30;;;-0.40;99.90;;;;;;5077207;28;20028;-70
2022/03/16 02:06:34;;;;;;;46.42;20.98;;;-0.40;99.90;;;;;;5076611;28;20021;-70
2022/03/16 02:08:59;;;;;;;34.22;19.77;;;-0.40;99.90;;;;;;5076689;28;20025;-70
2022/03/16 02:11:25;;;;;;;31.85;18.58;;;-0.30;99.90;;;;;;5077715;28;20036;-70
2022/03/16 02:13:51;;;;;;;35.08;20.63;;;-0.30;99.90;;;;;;5077971;28;20403;-70
2022/03/16 02:16:17;;;;;;;33.15;20.77;;;-0.30;99.90;;;;;;5076934;28;20020;-70
2022/03/16 02:18:43;;;;;;;27.67;17.52;;;-0.30;99.90;;;;;;5075387;28;20536;-70
2022/03/16 02:21:09;;;;;;;34.08;20.48;;;-0.30;99.90;;;;;;5076728;28;20028;-70
2022/03/16 02:23:35;;;;;;;35.58;20.00;;;-0.30;99.90;;;;;;5076350;28;20473;-70
2022/03/16 02:26:01;;;;;;;32.63;20.35;;;-0.30;99.90;;;;;;5075768;28;20041;-70
2022/03/16 02:28:27;;;;;;;35.25;19.70;;;-0.20;99.90;;;;;;5075962;28;20023;-70
2022/03/16 02:30:53;;;;;;;37.67;21.48;;;-0.30;99.90;;;;;;5076346;28;20051;-70
2022/03/16 02:33:18;;;;;;;35.67;21.67;;;-0.20;99.90;;;;;;5076473;28;20056;-70
2022/03/16 02:35:45;;;;;;;35.63;20.73;;;-0.30;99.90;;;;;;5076051;28;20056;-70
2022/03/16 02:38:11;;;;;;;37.60;20.00;;;-0.30;99.90;;;;;;5076467;28;20098;-70
2022/03/16 02:40:38;;;;;;;41.38;23.55;;;-0.30;99.90;;;;;;5076081;28;20025;-70
2022/03/16 02:43:03;;;;;;;42.70;23.77;;;-0.30;99.90;;;;;;5075896;28;20024;-70
2022/03/16 02:45:29;;;;;;;36.30;20.90;;;-0.40;99.90;;;;;;5076393;28;20029;-70
2022/03/16 02:47:54;;;;;;;47.40;23.85;;;-0.40;99.90;;;;;;5076219;28;20112;-70
2022/03/16 02:50:20;;;;;;;43.53;24.63;;;-0.40;99.90;;;;;;5075871;28;20070;-70
2022/03/16 02:52:47;;;;;;;39.83;22.92;;;-0.50;99.90;;;;;;5076090;28;20074;-70
2022/03/16 02:55:13;;;;;;;38.47;23.20;;;-0.50;99.90;;;;;;5075747;28;20021;-70
2022/03/16 02:57:40;;;;;;;38.78;22.60;;;-0.50;99.90;;;;;;5075715;28;20024;-70
2022/03/16 03:00:08;;;;;;;45.95;23.85;;;-0.60;99.90;;;;;;5075720;28;20487;-70
2022/03/16 03:02:34;;;;;;;44.78;23.27;;;-0.50;99.90;;;;;;5075747;28;20029;-70
2022/03/16 03:05:00;;;;;;;46.90;23.65;;;-0.50;99.90;;;;;;5075438;28;20058;-70
2022/03/16 03:07:25;;;;;;;47.22;24.65;;;-0.50;99.90;;;;;;5075634;28;20020;-70
2022/03/16 03:09:51;;;;;;;47.35;23.67;;;-0.50;99.90;;;;;;5075448;28;20033;-70
2022/03/16 03:12:17;;;;;;;44.67;23.42;;;-0.40;99.90;;;;;;5076088;28;20035;-70
2022/03/16 03:14:43;;;;;;;42.53;23.73;;;-0.30;99.90;;;;;;5075594;28;20043;-70
2022/03/16 03:17:09;;;;;;;39.80;22.88;;;-0.30;99.90;;;;;;5074107;28;20023;-70
2022/03/16 03:19:34;;;;;;;48.50;22.73;;;-0.30;99.90;;;;;;5075765;28;20048;-70
2022/03/16 03:22:00;;;;;;;42.50;21.95;;;-0.20;99.90;;;;;;5075258;28;20540;-70
2022/03/16 03:24:26;;;;;;;48.67;24.95;;;-0.20;99.90;;;;;;5075380;28;20527;-70
2022/03/16 03:26:51;;;;;;;50.53;24.25;;;-0.20;99.90;;;;;;5075508;28;20047;-71
2022/03/16 03:29:17;;;;;;;53.55;23.63;;;-0.20;99.90;;;;;;5075172;28;20503;-71
2022/03/16 03:31:43;;;;;;;36.42;23.02;;;-0.10;99.90;;;;;;5075376;28;20372;-71
2022/03/16 03:34:10;;;;;;;93.10;23.17;;;-0.10;99.90;;;;;;5075638;28;20431;-71
2022/03/16 03:36:35;;;;;;;76.72;22.70;;;0.00;99.90;;;;;;5075209;28;20024;-71
2022/03/16 03:39:02;;;;;;;81.28;22.00;;;0.00;99.90;;;;;;5075117;28;20031;-71
2022/03/16 03:41:27;;;;;;;39.10;19.60;;;0.00;99.90;;;;;;5075187;28;20025;-71
2022/03/16 03:43:53;;;;;;;34.60;19.90;;;0.00;99.90;;;;;;5075031;28;20106;-71
2022/03/16 03:46:18;;;;;;;34.63;19.90;;;0.10;99.90;;;;;;5074765;28;20028;-71
2022/03/16 03:48:44;;;;;;;33.15;21.27;;;0.10;99.90;;;;;;5074757;28;20056;-71
2022/03/16 03:51:09;;;;;;;32.92;20.67;;;0.10;99.90;;;;;;5075101;28;20020;-71
2022/03/16 03:53:35;;;;;;;32.88;21.52;;;0.20;99.90;;;;;;5074559;28;20028;-71
2022/03/16 03:56:01;;;;;;;35.70;21.95;;;0.20;99.90;;;;;;5074501;28;20485;-71
2022/03/16 03:58:26;;;;;;;39.60;21.77;;;0.30;99.90;;;;;;5074558;28;20393;-71
2022/03/16 04:00:52;;;;;;;39.40;22.27;;;0.40;99.90;;;;;;5074529;28;20021;-71
2022/03/16 04:03:18;;;;;;;34.17;21.85;;;0.30;99.90;;;;;;5074632;28;20520;-72
2022/03/16 04:05:44;;;;;;;42.25;24.48;;;0.40;99.90;;;;;;5074456;28;20029;-71
2022/03/16 04:08:09;;;;;;;71.10;24.52;;;0.40;99.90;;;;;;5073279;28;20380;-71
2022/03/16 04:10:36;;;;;;;55.38;22.88;;;0.40;99.90;;;;;;5074467;28;20020;-71
2022/03/16 04:13:02;;;;;;;54.17;22.70;;;0.40;99.90;;;;;;5074424;28;20124;-71
2022/03/16 04:15:28;;;;;;;34.42;20.88;;;0.30;99.90;;;;;;5074226;28;20111;-71
2022/03/16 04:17:54;;;;;;;31.42;19.83;;;0.30;99.90;;;;;;5074347;28;20419;-71
2022/03/16 04:20:20;;;;;;;37.25;21.95;;;0.30;99.90;;;;;;5074275;28;20031;-71
2022/03/16 04:22:45;;;;;;;33.50;20.20;;;0.30;99.90;;;;;;5074209;28;20568;-71
2022/03/16 04:25:11;;;;;;;34.28;21.17;;;0.20;99.90;;;;;;5074093;28;20107;-71
2022/03/16 04:27:37;;;;;;;61.42;22.35;;;0.20;99.90;;;;;;5074336;28;20095;-71
2022/03/16 04:30:04;;;;;;;60.13;22.45;;;0.20;99.90;;;;;;5074255;28;20017;-71
2022/03/16 04:32:29;;;;;;;40.28;22.35;;;0.20;99.90;;;;;;5074059;28;20024;-71
2022/03/16 04:34:55;;;;;;;77.10;23.15;;;0.20;99.90;;;;;;5074592;28;20067;-71
2022/03/16 04:37:21;;;;;;;67.63;22.40;;;0.20;99.90;;;;;;5074450;28;20032;-71
2022/03/16 04:39:46;;;;;;;50.72;22.10;;;0.20;99.90;;;;;;5074480;28;20075;-71
2022/03/16 04:42:12;;;;;;;37.28;21.10;;;0.20;99.90;;;;;;5074080;28;20097;-71
2022/03/16 04:44:37;;;;;;;64.78;22.10;;;0.20;99.90;;;;;;5074102;28;20041;-71
2022/03/16 04:47:03;;;;;;;58.85;23.80;;;0.10;99.90;;;;;;5073998;28;20028;-71
2022/03/16 04:49:29;;;;;;;55.72;22.20;;;0.10;99.90;;;;;;5075229;28;20029;-71
2022/03/16 04:51:54;;;;;;;45.17;21.35;;;0.00;99.90;;;;;;5080890;28;20103;-71
2022/03/16 04:54:20;;;;;;;35.88;21.83;;;0.00;99.90;;;;;;5080585;28;20080;-71
2022/03/16 04:56:46;;;;;;;68.40;21.77;;;0.00;99.90;;;;;;5079363;28;20024;-71
2022/03/16 04:59:12;;;;;;;43.58;21.40;;;-0.10;99.90;;;;;;5080537;28;20431;-71
2022/03/16 05:01:37;;;;;;;87.63;23.02;;;-0.10;99.90;;;;;;5080786;28;20024;-71
2022/03/16 05:04:03;;;;;;;70.32;22.20;;;-0.10;99.90;;;;;;5080618;28;20024;-71
2022/03/16 05:06:28;;;;;;;76.72;23.67;;;-0.10;99.90;;;;;;5080432;28;20016;-71
2022/03/16 05:08:54;;;;;;;58.38;22.92;;;-0.20;99.90;;;;;;5080875;28;20052;-71
2022/03/16 05:11:22;;;;;;;47.30;22.75;;;-0.20;99.90;;;;;;5080496;28;20408;-71
2022/03/16 05:13:51;;;;;;;70.28;23.10;;;-0.20;99.90;;;;;;5080435;28;20107;-71
2022/03/16 05:16:17;;;;;;;51.08;23.65;;;-0.20;99.90;;;;;;5080392;28;20031;-71
2022/03/16 05:18:45;;;;;;;107.68;25.85;;;-0.20;99.90;;;;;;5080314;28;20020;-71
2022/03/16 05:21:11;;;;;;;43.28;23.38;;;-0.20;99.90;;;;;;5080301;28;20025;-71
2022/03/16 05:23:37;;;;;;;35.55;21.83;;;-0.20;99.90;;;;;;5080340;28;20090;-71
2022/03/16 05:26:04;;;;;;;42.78;23.33;;;-0.10;99.90;;;;;;5079142;28;20067;-71
2022/03/16 05:28:29;;;;;;;90.82;25.02;;;-0.10;99.90;;;;;;5080221;28;20024;-71
2022/03/16 05:30:55;;;;;;;73.00;23.85;;;-0.10;99.90;;;;;;5080263;28;20027;-71
2022/03/16 05:33:23;;;;;;;40.42;23.23;;;-0.10;99.90;;;;;;5080237;28;20052;-71
2022/03/16 05:35:48;;;;;;;62.47;23.70;;;-0.10;99.90;;;;;;5080092;28;20035;-71
2022/03/16 05:38:14;;;;;;;68.70;21.10;;;-0.10;99.90;;;;;;5080445;28;20111;-71
2022/03/16 05:40:40;;;;;;;46.33;20.83;;;-0.10;99.90;;;;;;5080540;28;20023;-71
2022/03/16 05:43:06;;;;;;;84.53;20.38;;;-0.10;99.90;;;;;;5080063;28;20031;-71
2022/03/16 05:45:32;;;;;;;37.25;20.73;;;-0.10;99.90;;;;;;5080531;28;20021;-71
2022/03/16 05:47:57;;;;;;;52.88;20.17;;;-0.10;99.90;;;;;;5080622;28;20381;-71
2022/03/16 05:50:28;;;;;;;71.32;20.20;;;-0.10;99.90;;;;;;5080235;28;20024;-71
2022/03/16 05:52:55;;;;;;;32.97;19.33;;;-0.10;99.90;;;;;;5080430;28;20016;-71
2022/03/16 05:55:21;;;;;;;87.90;20.73;;;-0.10;99.90;;;;;;5080526;28;20024;-71
2022/03/16 05:57:46;;;;;;;39.90;19.65;;;0.00;99.90;;;;;;5080065;28;20027;-71
2022/03/16 06:00:14;;;;;;;65.07;19.95;;;0.00;99.90;;;;;;5080481;28;20100;-71
2022/03/16 06:02:41;;;;;;;43.10;19.83;;;0.00;99.90;;;;;;5075718;28;20555;-71
2022/03/16 06:05:08;;;;;;;44.15;19.55;;;0.10;99.90;;;;;;5076668;28;20029;-71
2022/03/16 06:07:33;;;;;;;50.00;19.13;;;0.10;99.90;;;;;;5076780;28;20447;-71
2022/03/16 06:10:00;;;;;;;37.90;17.70;;;0.20;99.90;;;;;;5076656;28;20100;-71
2022/03/16 06:12:25;;;;;;;53.15;17.73;;;0.20;99.90;;;;;;5076940;28;20090;-71
2022/03/16 06:14:51;;;;;;;38.30;16.30;;;0.30;99.90;;;;;;5076495;28;20492;-71
2022/03/16 06:17:17;;;;;;;31.52;17.88;;;0.30;99.90;;;;;;5076521;28;20025;-71
2022/03/16 06:19:42;;;;;;;45.15;17.90;;;0.30;99.90;;;;;;5076547;28;20487;-71
2022/03/16 06:22:08;;;;;;;34.55;17.55;;;0.30;99.90;;;;;;5076666;28;20035;-71
2022/03/16 06:24:34;;;;;;;41.10;19.27;;;0.40;99.90;;;;;;5076172;28;20032;-71
2022/03/16 06:26:59;;;;;;;58.55;17.98;;;0.40;99.90;;;;;;5076912;28;20044;-71
2022/03/16 06:29:25;;;;;;;42.42;18.10;;;0.40;99.90;;;;;;5076316;28;20025;-71
2022/03/16 06:31:50;;;;;;;40.13;19.25;;;0.50;99.90;;;;;;5076741;28;20028;-71
2022/03/16 06:34:16;;;;;;;26.13;16.42;;;0.60;99.90;;;;;;5076501;28;20056;-71
2022/03/16 06:36:41;;;;;;;32.00;17.70;;;0.70;99.90;;;;;;5076100;28;20098;-71
2022/03/16 06:39:07;;;;;;;31.80;18.77;;;0.80;99.90;;;;;;5076450;28;20032;-71
2022/03/16 06:41:32;;;;;;;42.45;19.05;;;0.90;99.90;;;;;;5076201;28;20032;-71
2022/03/16 06:43:58;;;;;;;33.28;19.40;;;0.90;99.90;;;;;;5076232;28;20361;-71
2022/03/16 06:46:24;;;;;;;45.92;18.40;;;1.00;99.90;;;;;;5076038;28;20080;-71
2022/03/16 06:48:49;;;;;;;30.25;17.73;;;1.00;99.90;;;;;;5075919;28;20078;-71
2022/03/16 06:51:15;;;;;;;51.88;18.13;;;1.00;99.90;;;;;;5076185;28;20060;-71
2022/03/16 06:53:40;;;;;;;31.20;18.73;;;1.10;99.90;;;;;;5076185;28;20078;-71
2022/03/16 06:56:06;;;;;;;45.95;19.42;;;1.20;99.90;;;;;;5075893;28;20024;-71
2022/03/16 06:58:32;;;;;;;45.25;18.88;;;1.30;99.90;;;;;;5075873;28;20024;-71
2022/03/16 07:00:58;;;;;;;46.60;19.27;;;1.40;99.90;;;;;;5076014;28;20032;-71
2022/03/16 07:03:23;;;;;;;32.05;19.25;;;1.40;99.90;;;;;;5076044;28;20078;-71
2022/03/16 07:05:49;;;;;;;43.97;20.10;;;1.50;99.90;;;;;;5075771;28;20032;-71
2022/03/16 07:08:15;;;;;;;41.90;18.65;;;1.60;99.90;;;;;;5075689;28;20111;-70
2022/03/16 07:10:43;;;;;;;37.05;20.08;;;1.60;99.90;;;;;;5075591;28;20021;-71
2022/03/16 07:13:11;;;;;;;51.92;18.80;;;1.80;99.90;;;;;;5075365;28;20033;-71
2022/03/16 07:15:40;;;;;;;31.20;18.48;;;1.80;99.90;;;;;;5075467;28;20020;-71
2022/03/16 07:18:06;;;;;;;40.38;18.42;;;1.90;99.90;;;;;;5075511;28;20028;-70
2022/03/16 07:20:32;;;;;;;38.63;19.73;;;2.00;99.90;;;;;;5075617;28;20491;-71
2022/03/16 07:23:09;;;;;;;45.88;19.48;;;2.00;99.90;;;;;;5075311;28;20067;-71
2022/03/16 07:25:38;;;;;;;33.88;18.92;;;2.10;99.90;;;;;;5075400;28;20111;-71
2022/03/16 07:28:05;;;;;;;36.20;18.65;;;2.20;99.90;;;;;;5075309;28;20028;-71
2022/03/16 07:30:32;;;;;;;49.28;19.55;;;2.30;99.90;;;;;;5075220;28;20032;-71
2022/03/16 07:32:58;;;;;;;28.75;18.63;;;2.40;99.90;;;;;;5075029;28;20036;-73
2022/03/16 07:35:26;;;;;;;38.97;18.70;;;2.40;99.90;;;;;;5075169;28;20464;-71
2022/03/16 07:37:56;;;;;;;46.08;19.98;;;2.50;99.90;;;;;;5075011;28;20021;-71
2022/03/16 07:40:23;;;;;;;42.05;19.95;;;2.50;99.90;;;;;;5075309;28;20032;-71
2022/03/16 07:42:49;;;;;;;46.05;19.88;;;2.60;99.90;;;;;;5075005;28;20112;-71
2022/03/16 07:45:18;;;;;;;27.35;17.88;;;2.60;99.90;;;;;;5074888;28;20021;-71
2022/03/16 07:47:44;;;;;;;51.88;19.70;;;2.70;99.90;;;;;;5074822;28;20020;-71
2022/03/16 07:50:10;;;;;;;39.75;20.08;;;2.80;99.90;;;;;;5074910;28;20023;-71
2022/03/16 07:52:36;;;;;;;35.08;20.02;;;2.90;99.90;;;;;;5074774;28;20025;-71
2022/03/16 07:55:03;;;;;;;38.45;21.45;;;2.90;99.90;;;;;;5074585;28;20024;-71
2022/03/16 07:57:28;;;;;;;34.40;20.83;;;3.00;99.90;;;;;;5074641;28;20082;-71
2022/03/16 07:59:55;;;;;;;39.95;20.20;;;3.10;99.90;;;;;;5074891;28;20025;-71
2022/03/16 08:02:20;;;;;;;42.85;21.02;;;3.20;99.90;;;;;;5074535;28;20044;-71
2022/03/16 08:04:46;;;;;;;33.83;20.13;;;3.30;99.90;;;;;;5074584;28;20070;-71
2022/03/16 08:07:12;;;;;;;44.53;20.33;;;3.50;99.90;;;;;;5074472;28;20021;-71
2022/03/16 08:09:37;;;;;;;36.92;21.38;;;3.60;99.90;;;;;;5074753;28;20025;-71
2022/03/16 08:12:04;;;;;;;45.20;22.15;;;3.70;99.90;;;;;;5074514;28;20028;-71
2022/03/16 08:14:29;;;;;;;40.70;20.95;;;3.80;99.90;;;;;;5074155;28;20043;-71
2022/03/16 08:16:55;;;;;;;35.90;21.95;;;3.90;99.90;;;;;;5074365;28;20465;-71
2022/03/16 08:19:21;;;;;;;51.08;22.63;;;4.00;99.90;;;;;;5074501;28;20035;-71
2022/03/16 08:21:47;;;;;;;50.35;22.52;;;4.10;99.90;;;;;;5074334;28;20047;-71
2022/03/16 08:24:13;;;;;;;41.55;21.73;;;4.10;99.90;;;;;;5073618;28;20384;-71
2022/03/16 08:26:39;;;;;;;45.88;23.08;;;4.20;99.90;;;;;;5074077;28;20032;-71
2022/03/16 08:29:05;;;;;;;39.20;22.55;;;4.40;99.90;;;;;;5073137;28;20099;-71
2022/03/16 08:31:30;;;;;;;36.40;20.40;;;4.40;99.90;;;;;;5074216;28;20099;-71
2022/03/16 08:33:56;;;;;;;38.63;22.17;;;4.50;99.90;;;;;;5074656;28;20099;-71
2022/03/16 08:36:22;;;;;;;36.92;21.63;;;4.60;99.90;;;;;;5073997;28;20423;-71
2022/03/16 08:38:47;;;;;;;45.85;23.02;;;4.80;99.90;;;;;;5074153;28;20556;-71
2022/03/16 08:41:13;;;;;;;43.72;22.25;;;4.80;99.90;;;;;;5074308;28;20033;-72
2022/03/16 08:43:38;;;;;;;47.17;23.27;;;4.90;99.90;;;;;;5073938;28;20099;-71
2022/03/16 08:46:05;;;;;;;42.67;22.25;;;5.00;99.90;;;;;;5074073;28;20078;-71
2022/03/16 08:48:31;;;;;;;39.42;20.83;;;5.10;99.90;;;;;;5074014;28;20024;-71
2022/03/16 08:50:57;;;;;;;39.58;22.40;;;5.10;99.90;;;;;;5074093;28;20020;-71
2022/03/16 08:53:22;;;;;;;42.35;23.13;;;5.30;99.90;;;;;;5074026;28;20062;-71
2022/03/16 08:55:48;;;;;;;38.63;22.42;;;5.40;99.90;;;;;;5074158;28;20113;-71
2022/03/16 08:58:14;;;;;;;49.30;25.63;;;5.50;99.90;;;;;;5074129;28;20038;-71
2022/03/16 09:00:41;;;;;;;46.80;23.38;;;5.50;99.90;;;;;;5074137;28;20025;-71
2022/03/16 09:03:07;;;;;;;43.20;23.00;;;5.60;99.90;;;;;;5073918;28;20052;-71
2022/03/16 09:05:32;;;;;;;51.10;23.67;;;5.70;99.90;;;;;;5074325;28;20060;-71
2022/03/16 09:07:58;;;;;;;52.58;25.13;;;5.80;99.90;;;;;;5074370;28;20040;-72
2022/03/16 09:10:23;;;;;;;49.10;25.70;;;5.90;99.90;;;;;;5073806;28;20029;-71
2022/03/16 09:12:49;;;;;;;50.45;26.95;;;6.00;99.90;;;;;;5072517;28;20020;-71
2022/03/16 09:15:14;;;;;;;53.85;26.63;;;6.20;99.90;;;;;;5074046;28;20032;-72
2022/03/16 09:17:40;;;;;;;53.67;27.40;;;6.20;99.90;;;;;;5073790;28;20025;-72
2022/03/16 09:20:07;;;;;;;50.72;26.35;;;6.40;99.90;;;;;;5073716;28;20469;-72
2022/03/16 09:22:32;;;;;;;52.53;27.38;;;6.50;99.90;;;;;;5073741;28;20024;-72
2022/03/16 09:24:58;;;;;;;56.45;25.50;;;6.60;99.90;;;;;;5073844;28;20028;-72
2022/03/16 09:27:25;;;;;;;46.75;24.15;;;6.70;99.90;;;;;;5075052;28;20020;-70
2022/03/16 09:29:53;;;;;;;42.80;24.58;;;6.90;99.90;;;;;;5073956;28;20025;-70
2022/03/16 09:32:21;;;;;;;42.47;23.92;;;7.10;99.90;;;;;;5073580;28;20512;-70
2022/03/16 09:34:47;;;;;;;45.78;25.27;;;7.10;99.90;;;;;;5073573;28;20114;-70
2022/03/16 09:37:13;;;;;;;43.22;23.95;;;7.30;99.90;;;;;;5076616;28;20488;-70
2022/03/16 09:39:39;;;;;;;43.00;22.80;;;7.20;99.90;;;;;;5077304;28;20384;-70
2022/03/16 09:42:05;;;;;;;43.65;23.27;;;7.30;99.90;;;;;;5077392;28;20078;-71
2022/03/16 09:44:31;;;;;;;46.95;22.60;;;7.40;99.90;;;;;;5077022;28;20078;-70
2022/03/16 09:46:58;;;;;;;43.90;21.45;;;7.50;99.90;;;;;;5077239;28;20434;-70
2022/03/16 09:49:26;;;;;;;45.15;22.42;;;7.70;99.90;;;;;;5077424;28;20025;-70
2022/03/16 09:51:53;;;;;;;41.92;22.13;;;7.70;99.90;;;;;;5077141;28;20017;-70
2022/03/16 09:54:19;;;;;;;36.28;20.70;;;7.80;99.90;;;;;;5077058;28;20028;-70
2022/03/16 09:56:46;;;;;;;46.78;22.40;;;8.00;99.90;;;;;;5077292;28;20111;-70
2022/03/16 09:59:11;;;;;;;44.25;21.25;;;8.10;99.90;;;;;;5076949;28;20083;-70
2022/03/16 10:01:37;;;;;;;35.28;21.67;;;8.20;99.90;;;;;;5076886;28;20201;-70
2022/03/16 10:04:06;;;;;;;43.20;20.08;;;8.30;99.90;;;;;;5075559;28;20037;-70
2022/03/16 10:06:35;;;;;;;38.88;19.48;;;8.50;99.90;;;;;;5076750;28;20074;-71
2022/03/16 10:15:00;;;;;;;37.28;20.33;;;8.90;99.90;;;;;;5076978;28;20098;-70
2022/03/16 10:17:44;;;;;;;41.47;19.67;;;9.10;99.90;;;;;;5076973;28;20020;-71
2022/03/16 10:20:23;;;;;;;34.17;19.40;;;9.20;99.90;;;;;;5077169;28;20521;-70
2022/03/16 10:23:02;;;;;;;34.65;18.58;;;9.20;99.90;;;;;;5076818;28;20032;-71
2022/03/16 10:25:33;;;;;;;37.40;18.73;;;9.60;99.90;;;;;;5076305;28;20028;-71
2022/03/16 10:28:11;;;;;;;34.85;19.75;;;9.70;99.90;;;;;;5076714;28;20024;-71
2022/03/16 10:30:55;;;;;;;37.08;18.23;;;9.80;99.90;;;;;;5076743;28;20096;-71
2022/03/16 10:33:22;;;;;;;;;;;9.80;99.90;;;;;;5077182;28;20020;-71
2022/03/16 10:36:00;;;;;;;36.22;16.80;;;9.90;99.90;;;;;;5075035;28;19968;-70
2022/03/16 10:38:26;;;;;;;36.25;18.13;;;9.90;99.90;;;;;;5076554;28;20032;-71
2022/03/16 10:41:09;;;;;;;32.03;17.65;;;10.00;99.90;;;;;;5076098;28;20538;-71
2022/03/16 10:46:38;;;;;;;32.63;18.60;;;10.20;99.90;;;;;;5076100;28;20055;-71
2022/03/16 10:49:09;;;;;;;31.52;18.10;;;10.20;99.90;;;;;;5075655;28;20020;-69
2022/03/16 10:51:36;;;;;;;34.53;18.70;;;10.20;99.90;;;;;;5075956;28;20484;-71
2022/03/16 10:54:03;;;;;;;35.95;18.85;;;10.40;99.90;;;;;;5075862;28;20033;-71
2022/03/16 10:56:30;;;;;;;35.30;17.58;;;10.40;99.90;;;;;;5075747;28;20024;-71
2022/03/16 10:58:57;;;;;;;36.20;17.98;;;10.60;99.90;;;;;;5075783;28;20036;-71
2022/03/16 11:01:25;;;;;;;31.05;17.20;;;10.80;99.90;;;;;;5075741;28;20051;-71
2022/03/16 11:03:52;;;;;;;32.83;18.23;;;11.00;99.90;;;;;;5075793;28;20031;-71
2022/03/16 11:06:23;;;;;;;35.80;18.65;;;11.10;99.90;;;;;;5075583;28;20074;-71
2022/03/16 11:08:54;;;;;;;32.70;18.20;;;11.00;99.90;;;;;;5075638;28;20031;-71
2022/03/16 11:14:04;;;;;;;32.70;18.85;;;10.80;99.90;;;;;;5075554;28;20057;-71
2022/03/16 11:16:33;;;;;;;33.22;17.08;;;10.80;99.90;;;;;;5075388;28;20055;-71
2022/03/16 11:19:01;;;;;;;38.58;18.77;;;10.90;99.90;;;;;;5075592;28;20037;-71
2022/03/16 11:21:58;;;;;;;37.95;18.42;;;10.80;99.90;;;;;;5075609;28;20033;-71
2022/03/16 11:24:26;;;;;;;33.67;18.85;;;10.90;99.90;;;;;;5075512;28;20077;-71
2022/03/16 11:27:09;;;;;;;32.53;19.48;;;10.90;99.90;;;;;;5075158;28;20125;-71
2022/03/16 11:29:58;;;;;;;35.92;18.95;;;11.10;99.90;;;;;;5074083;28;20020;-71
2022/03/16 11:32:24;;;;;;;38.03;19.70;;;11.20;99.90;;;;;;5075130;28;20020;-71
2022/03/16 11:35:00;;;;;;;32.35;19.10;;;11.30;99.90;;;;;;5075136;28;20028;-71
2022/03/16 11:37:37;;;;;;;35.30;19.25;;;11.40;99.90;;;;;;5075327;28;20016;-71
2022/03/16 11:40:20;;;;;;;30.95;18.95;;;11.50;99.90;;;;;;5075351;28;20104;-71
2022/03/16 11:43:04;;;;;;;29.25;18.08;;;11.40;99.90;;;;;;5075731;28;20381;-71
2022/03/16 11:45:43;;;;;;;30.52;18.27;;;11.30;99.90;;;;;;5075359;28;20029;-70
2022/03/16 11:48:33;;;;;;;30.15;19.30;;;11.30;99.90;;;;;;5075998;28;20078;-70
2022/03/16 11:51:13;;;;;;;29.20;17.85;;;11.30;99.90;;;;;;5075233;28;20021;-71
2022/03/16 11:54:05;;;;;;;30.58;18.13;;;11.30;99.90;;;;;;5074663;28;20078;-71
2022/03/16 11:56:37;;;;;;;37.33;19.60;;;11.30;99.90;;;;;;5074653;28;20027;-71
2022/03/16 11:59:23;;;;;;;32.35;17.90;;;11.30;99.90;;;;;;5073773;28;20096;-71
2022/03/16 12:01:52;;;;;;;31.25;19.35;;;11.20;99.90;;;;;;5071256;28;20072;-71
2022/03/16 12:04:34;;;;;;;32.38;20.30;;;11.10;99.90;;;;;;5074686;28;20016;-71
2022/03/16 12:07:06;;;;;;;30.27;18.77;;;11.00;99.90;;;;;;5074835;28;20023;-71
2022/03/16 12:09:51;;;;;;;33.35;18.83;;;11.00;99.90;;;;;;5074402;28;20048;-71
2022/03/16 12:15:11;;;;;;;30.17;19.27;;;11.00;99.90;;;;;;5074597;28;20055;-71
2022/03/16 12:17:41;;;;;;;35.10;19.05;;;11.10;99.90;;;;;;5074315;28;20020;-72
2022/03/16 12:20:16;;;;;;;29.35;17.30;;;11.00;99.90;;;;;;5074440;28;20020;-71
2022/03/16 12:22:47;;;;;;;29.17;16.25;;;11.10;99.90;;;;;;5072993;28;20016;-71
2022/03/16 12:25:26;;;;;;;29.92;16.73;;;11.10;99.90;;;;;;5073959;28;20054;-71
2022/03/16 12:31:03;;;;;;;27.48;16.08;;;10.90;99.90;;;;;;5075062;28;20069;-71
2022/03/16 12:33:33;;;;;;;24.63;15.73;;;10.80;99.90;;;;;;5074460;28;20405;-71
2022/03/16 12:36:02;;;;;;;30.38;16.73;;;11.00;99.90;;;;;;5074124;28;20377;-71
2022/03/16 12:38:31;;;;;;;27.48;15.15;;;10.90;99.90;;;;;;5074387;28;20043;-71
2022/03/16 12:43:48;;;;;;;20.65;13.07;;;10.80;99.90;;;;;;5074754;28;20537;-71
2022/03/16 12:46:25;;;;;;;38.30;13.40;;;10.80;99.90;;;;;;5074082;28;20025;-73
2022/03/16 12:49:00;;;;;;;23.50;13.43;;;10.90;99.90;;;;;;5074510;28;20067;-73
2022/03/16 12:51:50;;;;;;;21.00;12.82;;;11.00;99.90;;;;;;5072735;28;20020;-73
2022/03/16 12:54:26;;;;;;;18.98;12.82;;;11.20;99.90;;;;;;5074033;28;20017;-73